Quincy Center, Massachusetts
Current Conditions -  °F | °C
As of 11:19 AM on Thursday 23 Oct 2014 (Local Time) from KBOS Reporting Station
Haze Haze  
Wind Chill: 52°   Ceiling: 800
Heat Index: 52°   Visibility: 6mi
Dew Point: 52°   Wind: 30mph
Humidity: 100%   Direction: 20°NNE
Pressure: 29.61"   Gusts: 38mph
Location:  42.2468°N, 71.0071°W
Report Text: KBOS 231519Z 02026G33KT 6SM BR OVC008 11/11 A2961 RMK AO2 PK WND 02033/1514 DZE14 P0000
Loading
Personal Weather Stations






























Interactive Weather Map
Tropical Storm Tracking
New forecast layout! Learn more

10-Day Weather Forecast

Advertisements
Track Severe Weather on mobile